Airport View

Enter AWOS ICAO identifier for current METAR.

ex. KFNL

KMAO 022255Z AUTO 23006KT 10SM CLR 27/16 A3007 RMK AO2

2 Jun 2020 22:58

Frequency: 119.875

Phone: 843-423-4231

Other Area AWOS: KFLO - KHYW - KLBT - KCPC

TAF KFLO 021720Z 0218/0318 23007KT P6SM FEW120 FM030000 20006KT P6SM FEW120